createdAt,value
2023-05-19T00:00:58.949Z,4.20
2023-05-19T00:03:26.932Z,4.03
2023-05-19T00:05:54.425Z,4.00
2023-05-19T00:08:24.518Z,3.75
2023-05-19T00:10:51.423Z,3.75
2023-05-19T00:13:18.166Z,3.88
2023-05-19T00:15:45.164Z,3.35
2023-05-19T00:18:13.964Z,3.67
2023-05-19T00:20:41.141Z,3.83
2023-05-19T00:23:08.037Z,3.70
2023-05-19T00:25:34.653Z,3.78
2023-05-19T00:28:02.382Z,3.90
2023-05-19T00:30:31.967Z,3.60
2023-05-19T00:32:58.735Z,4.18
2023-05-19T00:35:25.972Z,3.38
2023-05-19T00:37:52.380Z,3.88
2023-05-19T00:40:19.106Z,3.97
2023-05-19T00:42:45.661Z,3.97
2023-05-19T00:45:12.188Z,3.78
2023-05-19T00:47:39.490Z,3.90
2023-05-19T00:50:06.691Z,4.38
2023-05-19T00:52:33.659Z,3.97
2023-05-19T00:55:00.341Z,4.50
2023-05-19T00:57:27.814Z,3.72
2023-05-19T00:59:55.004Z,4.47
2023-05-19T01:02:21.701Z,4.78
2023-05-19T01:04:50.044Z,4.13
2023-05-19T01:07:16.622Z,4.60
2023-05-19T01:09:44.381Z,4.10
2023-05-19T01:12:11.370Z,4.18
2023-05-19T01:14:37.808Z,4.53
2023-05-19T01:17:16.847Z,4.00
2023-05-19T01:20:06.632Z,4.13
2023-05-19T01:22:54.819Z,4.38
2023-05-19T01:25:38.033Z,4.00
2023-05-19T01:28:19.913Z,4.18
2023-05-19T01:30:52.738Z,3.97
2023-05-19T01:33:20.964Z,3.92
2023-05-19T01:35:49.155Z,4.03
2023-05-19T01:38:17.700Z,3.95
2023-05-19T01:40:46.021Z,3.55
2023-05-19T01:43:15.494Z,4.10
2023-05-19T01:45:44.590Z,4.43
2023-05-19T01:48:12.669Z,4.38
2023-05-19T01:50:40.916Z,4.35
2023-05-19T01:53:07.571Z,4.63
2023-05-19T01:55:40.568Z,4.10
2023-05-19T01:58:21.359Z,4.63
2023-05-19T02:01:16.503Z,4.57
2023-05-19T02:03:59.372Z,4.72
2023-05-19T02:06:44.629Z,4.63
2023-05-19T02:09:44.573Z,4.50
2023-05-19T02:12:23.387Z,5.10
2023-05-19T02:14:58.484Z,4.63
2023-05-19T02:17:29.123Z,4.43
2023-05-19T02:19:55.834Z,4.97
2023-05-19T02:22:22.649Z,4.88
2023-05-19T02:24:51.560Z,5.60
2023-05-19T02:27:18.565Z,5.30
2023-05-19T02:29:45.046Z,5.32
2023-05-19T02:32:11.907Z,5.25
2023-05-19T02:34:40.023Z,5.47
2023-05-19T02:37:08.123Z,5.63
2023-05-19T02:39:35.242Z,5.70
2023-05-19T02:42:01.774Z,5.57
2023-05-19T02:44:28.404Z,5.82
2023-05-19T02:46:54.953Z,6.30
2023-05-19T02:49:22.043Z,5.00
2023-05-19T02:51:48.515Z,5.78
2023-05-19T02:54:15.014Z,5.78
2023-05-19T02:56:41.521Z,6.55
2023-05-19T02:59:08.014Z,5.90
2023-05-19T03:01:34.613Z,5.93
2023-05-19T03:04:01.647Z,6.13
2023-05-19T03:06:29.322Z,5.65
2023-05-19T03:08:55.835Z,5.50
2023-05-19T03:11:23.161Z,5.32
2023-05-19T03:13:49.654Z,5.55
2023-05-19T03:16:16.230Z,5.97
2023-05-19T03:18:43.164Z,5.47
2023-05-19T03:21:09.624Z,6.05
2023-05-19T03:23:36.237Z,6.03
2023-05-19T03:26:04.152Z,5.20
2023-05-19T03:28:30.756Z,5.97
2023-05-19T03:30:57.377Z,5.82
2023-05-19T03:33:29.791Z,5.53
2023-05-19T03:40:10.486Z,5.85
2023-05-19T03:42:39.741Z,5.57
2023-05-19T03:45:07.030Z,6.00
2023-05-19T03:47:34.110Z,6.03
2023-05-19T03:50:11.988Z,5.60
2023-05-19T03:53:04.433Z,5.85
2023-05-19T03:55:38.988Z,5.93
2023-05-19T03:58:06.392Z,5.85
2023-05-19T04:00:33.173Z,5.78
2023-05-19T04:03:00.621Z,5.63
2023-05-19T04:05:27.266Z,6.20
2023-05-19T04:07:53.704Z,5.72
2023-05-19T04:10:20.997Z,5.90
2023-05-19T04:12:47.899Z,5.55
2023-05-19T04:15:15.724Z,6.00
2023-05-19T04:17:42.963Z,5.55
2023-05-19T04:20:10.019Z,5.30
2023-05-19T04:22:36.836Z,6.22
2023-05-19T04:25:04.889Z,5.57
2023-05-19T04:27:31.975Z,6.32
2023-05-19T04:29:59.374Z,5.88
2023-05-19T04:32:25.972Z,5.80
2023-05-19T04:34:53.673Z,5.93
2023-05-19T04:37:25.978Z,5.65
2023-05-19T04:39:52.980Z,6.32
2023-05-19T04:42:21.947Z,5.63
2023-05-19T04:44:51.799Z,6.07
2023-05-19T04:47:21.337Z,6.68
2023-05-19T04:49:48.756Z,6.70
2023-05-19T04:52:15.875Z,6.50
2023-05-19T04:54:42.398Z,6.43
2023-05-19T04:57:12.537Z,6.30
2023-05-19T04:59:39.707Z,6.93
2023-05-19T05:02:08.133Z,5.82
2023-05-19T05:04:36.792Z,6.15
2023-05-19T05:07:03.236Z,6.70
2023-05-19T05:09:29.785Z,7.13
2023-05-19T05:11:58.922Z,7.03
2023-05-19T05:14:25.771Z,6.00
2023-05-19T05:16:52.562Z,7.00
2023-05-19T05:19:23.215Z,5.90
2023-05-19T05:21:50.122Z,6.10
2023-05-19T05:24:17.411Z,6.32
2023-05-19T05:26:50.112Z,5.82
2023-05-19T05:29:16.612Z,5.40
2023-05-19T05:31:43.256Z,5.53
2023-05-19T05:34:10.624Z,5.80
2023-05-19T05:36:37.547Z,5.30
2023-05-19T05:39:05.538Z,5.43
2023-05-19T05:41:35.242Z,5.95
2023-05-19T05:44:06.474Z,5.45
2023-05-19T05:46:33.342Z,6.00
2023-05-19T05:49:00.424Z,5.72
2023-05-19T05:51:27.179Z,5.88
2023-05-19T05:53:54.873Z,5.43
2023-05-19T05:56:27.578Z,5.57
2023-05-19T05:58:54.442Z,6.38
2023-05-19T06:01:21.852Z,5.63
2023-05-19T06:03:49.519Z,5.05
2023-05-19T06:06:20.440Z,5.13
2023-05-19T06:08:47.041Z,4.93
2023-05-19T06:11:14.097Z,5.20
2023-05-19T06:13:41.831Z,4.70
2023-05-19T06:16:13.143Z,5.50
2023-05-19T06:18:43.723Z,4.60
2023-05-19T06:21:10.406Z,4.63
2023-05-19T06:23:37.465Z,4.22
2023-05-19T06:26:05.741Z,4.82
2023-05-19T06:28:33.411Z,4.70
2023-05-19T06:31:00.305Z,4.45
2023-05-19T06:33:39.309Z,4.90
2023-05-19T06:36:05.984Z,4.82
2023-05-19T06:38:32.548Z,4.45
2023-05-19T06:40:59.459Z,4.18
2023-05-19T06:43:25.963Z,4.43
2023-05-19T06:45:58.281Z,4.50
2023-05-19T06:48:25.798Z,4.00
2023-05-19T06:50:52.381Z,3.75
2023-05-19T06:53:21.508Z,3.58
2023-05-19T06:55:59.474Z,4.55
2023-05-19T06:58:28.331Z,3.95
2023-05-19T07:00:55.914Z,4.10
2023-05-19T07:03:25.960Z,3.65
2023-05-19T07:05:54.289Z,3.80
2023-05-19T07:08:20.854Z,3.40
2023-05-19T07:10:47.405Z,3.50
2023-05-19T07:13:15.228Z,3.50
2023-05-19T07:15:41.906Z,3.60
2023-05-19T07:18:08.744Z,2.90
2023-05-19T07:20:35.719Z,3.47
2023-05-19T07:23:02.675Z,3.15
2023-05-19T07:25:30.434Z,2.90
2023-05-19T07:27:57.659Z,3.03
2023-05-19T07:30:24.532Z,2.83
2023-05-19T07:32:51.181Z,3.20
2023-05-19T07:35:17.713Z,3.13
2023-05-19T07:37:44.691Z,2.78
2023-05-19T07:40:11.572Z,2.97
2023-05-19T07:42:37.999Z,3.10
2023-05-19T07:45:04.764Z,2.70
2023-05-19T07:47:31.397Z,2.50
2023-05-19T07:49:57.896Z,2.90
2023-05-19T07:52:24.396Z,3.13
2023-05-19T07:54:50.880Z,2.88
2023-05-19T07:57:18.894Z,2.58
2023-05-19T07:59:45.526Z,2.85
2023-05-19T08:02:12.155Z,2.45
2023-05-19T08:04:38.815Z,2.40
2023-05-19T08:07:05.472Z,2.40
2023-05-19T08:09:31.914Z,2.22
2023-05-19T08:11:58.496Z,2.40
2023-05-19T08:14:24.972Z,1.92
2023-05-19T08:16:51.692Z,1.83
2023-05-19T08:19:18.216Z,2.83
2023-05-19T08:21:45.369Z,2.40
2023-05-19T08:24:11.819Z,2.13
2023-05-19T08:26:38.297Z,2.10
2023-05-19T08:29:05.023Z,2.17
2023-05-19T08:31:31.629Z,2.25
2023-05-19T08:33:58.153Z,1.80
2023-05-19T08:36:24.768Z,2.00
2023-05-19T08:38:51.512Z,2.15
2023-05-19T08:41:18.185Z,2.05
2023-05-19T08:43:45.321Z,1.98
2023-05-19T08:46:14.843Z,1.83
2023-05-19T08:48:43.867Z,2.30
2023-05-19T08:51:10.262Z,1.70
2023-05-19T08:53:40.987Z,2.10
2023-05-19T08:56:18.137Z,1.92
2023-05-19T08:58:45.944Z,1.90
2023-05-19T09:01:18.613Z,1.80
2023-05-19T09:03:47.383Z,1.40
2023-05-19T09:06:14.126Z,1.42
2023-05-19T09:08:42.108Z,1.27
2023-05-19T09:11:11.719Z,1.83
2023-05-19T09:13:38.647Z,1.60
2023-05-19T09:16:06.474Z,1.60
2023-05-19T09:18:33.185Z,1.70
2023-05-19T09:21:02.632Z,1.63
2023-05-19T09:23:32.545Z,1.50
2023-05-19T09:26:02.469Z,1.58
2023-05-19T09:28:32.996Z,1.80
2023-05-19T09:31:04.854Z,1.70
2023-05-19T09:33:33.925Z,1.58
2023-05-19T09:36:01.172Z,1.23
2023-05-19T09:38:28.056Z,1.77
2023-05-19T09:40:59.305Z,1.90
2023-05-19T09:43:33.559Z,1.90
2023-05-19T09:46:03.789Z,1.77
2023-05-19T09:48:30.691Z,1.65
2023-05-19T09:50:57.939Z,1.83
2023-05-19T09:53:25.191Z,1.75
2023-05-19T09:55:57.487Z,1.70
2023-05-19T09:58:24.929Z,1.77
2023-05-19T10:00:54.466Z,1.67
2023-05-19T10:03:23.821Z,1.50
2023-05-19T10:05:51.409Z,1.45
2023-05-19T10:08:17.968Z,1.40
2023-05-19T10:10:47.730Z,1.77
2023-05-19T10:13:16.397Z,1.85
2023-05-19T10:15:57.433Z,1.88
2023-05-19T10:18:27.386Z,1.67
2023-05-19T10:20:54.300Z,1.85
2023-05-19T10:23:21.026Z,1.70
2023-05-19T10:25:49.149Z,1.40
2023-05-19T10:28:18.460Z,1.40
2023-05-19T10:30:49.281Z,1.58
2023-05-19T10:33:18.804Z,1.98
2023-05-19T10:35:54.215Z,1.48
2023-05-19T10:38:48.265Z,2.13
2023-05-19T10:41:52.647Z,1.70
2023-05-19T10:44:34.089Z,1.95
2023-05-19T10:47:00.835Z,1.45
2023-05-19T10:49:27.878Z,1.50
2023-05-19T10:51:57.461Z,1.73
2023-05-19T10:54:41.011Z,1.70
2023-05-19T10:59:39.645Z,1.85
2023-05-19T11:02:08.050Z,1.63
2023-05-19T11:04:56.225Z,2.00
2023-05-19T11:07:24.679Z,1.63
2023-05-19T11:09:54.454Z,1.55
2023-05-19T11:12:24.648Z,1.52
2023-05-19T11:14:55.381Z,1.65
2023-05-19T11:17:24.582Z,1.88
2023-05-19T11:19:55.525Z,1.40
2023-05-19T11:22:26.529Z,1.83
2023-05-19T11:24:57.151Z,1.60
2023-05-19T11:27:34.613Z,1.70
2023-05-19T11:30:11.399Z,1.55
2023-05-19T11:32:44.383Z,1.65
2023-05-19T11:35:11.144Z,1.67
2023-05-19T11:37:37.795Z,1.73
2023-05-19T11:40:07.099Z,1.63
2023-05-19T11:42:34.855Z,1.60
2023-05-19T11:45:02.006Z,1.30
2023-05-19T11:47:28.548Z,1.42
2023-05-19T11:49:56.651Z,1.38
2023-05-19T11:52:24.438Z,1.38
2023-05-19T11:54:51.731Z,1.83
2023-05-19T11:57:18.443Z,1.70
2023-05-19T11:59:47.806Z,1.77
2023-05-19T12:02:19.585Z,1.75
2023-05-19T12:04:49.622Z,1.67
2023-05-19T12:07:18.330Z,1.73
2023-05-19T12:09:48.750Z,1.70
2023-05-19T12:12:19.978Z,1.55
2023-05-19T12:14:47.819Z,1.75
2023-05-19T12:17:19.782Z,1.35
2023-05-19T12:19:48.501Z,1.30
2023-05-19T12:22:16.396Z,1.33
2023-05-19T12:24:44.804Z,1.63
2023-05-19T12:27:24.438Z,1.73
2023-05-19T12:29:52.344Z,1.67
2023-05-19T12:32:19.603Z,1.67
2023-05-19T12:34:46.095Z,1.77
2023-05-19T12:37:12.613Z,1.55
2023-05-19T12:39:41.981Z,1.95
2023-05-19T12:42:10.137Z,1.88
2023-05-19T12:44:38.196Z,1.73
2023-05-19T12:47:07.099Z,1.60
2023-05-19T12:49:33.786Z,1.58
2023-05-19T12:52:07.201Z,1.45
2023-05-19T12:54:37.150Z,1.45
2023-05-19T12:57:05.953Z,1.75
2023-05-19T12:59:38.672Z,1.38
2023-05-19T13:04:33.071Z,1.33
2023-05-19T13:06:59.490Z,1.60
2023-05-19T13:09:26.655Z,1.80
2023-05-19T13:11:53.980Z,1.80
2023-05-19T13:14:20.687Z,1.80
2023-05-19T13:16:47.438Z,1.77
2023-05-19T13:21:51.011Z,1.70
2023-05-19T13:24:17.566Z,1.52
2023-05-19T13:26:45.199Z,1.40
2023-05-19T13:29:11.890Z,1.30
2023-05-19T13:31:38.472Z,1.60
2023-05-19T13:34:05.341Z,2.03
2023-05-19T13:36:33.217Z,2.00
2023-05-19T13:39:00.790Z,1.60
2023-05-19T13:41:29.296Z,1.50
2023-05-19T13:44:00.904Z,1.42
2023-05-19T13:46:40.919Z,1.90
2023-05-19T13:49:11.696Z,1.40
2023-05-19T13:51:39.615Z,1.60
2023-05-19T13:54:06.046Z,1.80
2023-05-19T13:56:32.999Z,1.45
2023-05-19T13:58:59.538Z,1.67
2023-05-19T14:01:26.025Z,1.60
2023-05-19T14:03:53.020Z,1.75
2023-05-19T14:06:19.745Z,1.23
2023-05-19T14:08:46.512Z,1.25
2023-05-19T14:11:19.895Z,1.50
2023-05-19T14:13:51.751Z,1.52
2023-05-19T14:16:20.343Z,1.15
2023-05-19T14:18:46.880Z,1.35
2023-05-19T14:21:13.325Z,1.33
2023-05-19T14:23:40.118Z,1.20
2023-05-19T14:26:06.746Z,1.42
2023-05-19T14:28:33.226Z,1.13
2023-05-19T14:30:59.967Z,1.40
2023-05-19T14:33:26.424Z,1.85
2023-05-19T14:35:53.408Z,1.98
2023-05-19T14:38:19.918Z,1.67
2023-05-19T14:40:48.265Z,1.63
2023-05-19T14:43:14.717Z,1.35
2023-05-19T14:45:43.976Z,1.23
2023-05-19T14:48:13.793Z,1.35
2023-05-19T14:50:40.409Z,1.60
2023-05-19T14:53:07.019Z,1.73
2023-05-19T14:55:33.492Z,1.77
2023-05-19T14:57:59.986Z,1.55
2023-05-19T15:00:26.852Z,1.63
2023-05-19T15:02:54.085Z,1.25
2023-05-19T15:05:21.588Z,1.30
2023-05-19T15:07:48.051Z,1.27
2023-05-19T15:10:14.626Z,1.20
2023-05-19T15:12:41.162Z,1.27
2023-05-19T15:15:08.416Z,1.60
2023-05-19T15:17:34.986Z,1.80
2023-05-19T15:20:01.517Z,1.50
2023-05-19T15:22:28.011Z,1.55
2023-05-19T15:24:55.014Z,1.60
2023-05-19T15:27:22.402Z,1.90
2023-05-19T15:29:49.015Z,1.50
2023-05-19T15:32:15.448Z,1.35
2023-05-19T15:34:41.874Z,1.90
2023-05-19T15:37:08.462Z,1.45
2023-05-19T15:39:34.939Z,1.95
2023-05-19T15:42:01.581Z,1.45
2023-05-19T15:44:29.108Z,1.70
2023-05-19T15:46:55.843Z,2.30
2023-05-19T15:49:22.584Z,2.00
2023-05-19T15:51:49.426Z,1.58
2023-05-19T15:54:15.892Z,1.67
2023-05-19T15:56:42.380Z,4.20
2023-05-19T15:59:08.815Z,3.58
2023-05-19T16:01:35.770Z,2.33
2023-05-19T16:04:03.701Z,6.18
2023-05-19T16:06:31.286Z,1.80
2023-05-19T16:08:57.807Z,1.45
2023-05-19T16:11:24.283Z,1.40
2023-05-19T16:13:50.749Z,1.50
2023-05-19T16:16:17.516Z,1.50
2023-05-19T16:18:44.589Z,1.65
2023-05-19T16:21:11.062Z,1.48
2023-05-19T16:23:37.653Z,1.20
2023-05-19T16:26:04.771Z,1.38
2023-05-19T16:28:32.348Z,1.30
2023-05-19T16:31:00.061Z,1.48
2023-05-19T16:33:27.308Z,1.48
2023-05-19T16:35:54.003Z,1.80
2023-05-19T16:38:20.554Z,1.25
2023-05-19T16:40:46.965Z,1.60
2023-05-19T16:43:13.396Z,1.42
2023-05-19T16:45:40.537Z,1.52
2023-05-19T16:48:07.010Z,1.60
2023-05-19T16:50:33.827Z,1.40
2023-05-19T16:53:00.704Z,1.30
2023-05-19T16:55:27.186Z,1.83
2023-05-19T16:57:53.643Z,1.80
2023-05-19T17:00:20.280Z,1.40
2023-05-19T17:02:46.817Z,1.27
2023-05-19T17:05:13.367Z,1.40
2023-05-19T17:07:40.004Z,1.52
2023-05-19T17:10:07.107Z,1.80
2023-05-19T17:12:33.558Z,2.00
2023-05-19T17:15:00.001Z,1.75
2023-05-19T17:17:26.525Z,1.50
2023-05-19T17:19:53.058Z,1.88
2023-05-19T17:22:19.572Z,1.30
2023-05-19T17:24:46.232Z,1.67
2023-05-19T17:27:12.671Z,1.45
2023-05-19T17:29:39.307Z,1.60
2023-05-19T17:32:05.987Z,1.38
2023-05-19T17:34:32.615Z,1.75
2023-05-19T17:36:59.052Z,1.65
2023-05-19T17:39:25.474Z,1.60
2023-05-19T17:41:52.209Z,1.90
2023-05-19T17:44:18.673Z,1.60
2023-05-19T17:46:45.175Z,1.70
2023-05-19T17:49:12.974Z,1.38
2023-05-19T17:51:39.685Z,1.80
2023-05-19T17:54:06.592Z,1.80
2023-05-19T17:56:34.394Z,2.03
2023-05-19T17:59:01.728Z,1.90
2023-05-19T18:01:28.530Z,1.70
2023-05-19T18:03:55.335Z,1.80
2023-05-19T18:06:24.008Z,1.73
2023-05-19T18:08:51.734Z,1.75
2023-05-19T18:11:18.748Z,1.88
2023-05-19T18:13:45.536Z,2.00
2023-05-19T18:16:12.405Z,1.40
2023-05-19T18:18:41.130Z,1.60
2023-05-19T18:21:07.890Z,1.60
2023-05-19T18:23:34.368Z,1.95
2023-05-19T18:26:00.839Z,1.65
2023-05-19T18:28:29.588Z,1.60
2023-05-19T18:31:00.761Z,1.40
2023-05-19T18:33:28.760Z,1.45
2023-05-19T18:35:57.895Z,1.40
2023-05-19T18:38:24.458Z,1.20
2023-05-19T18:40:51.176Z,1.48
2023-05-19T18:43:18.401Z,1.70
2023-05-19T18:45:46.951Z,1.50
2023-05-19T18:48:13.503Z,1.83
2023-05-19T18:50:40.850Z,2.20
2023-05-19T18:53:07.302Z,1.73
2023-05-19T18:55:34.213Z,2.08
2023-05-19T18:58:01.705Z,2.40
2023-05-19T19:00:28.504Z,2.20
2023-05-19T19:02:55.084Z,2.10
2023-05-19T19:05:21.843Z,1.50
2023-05-19T19:07:49.226Z,2.13
2023-05-19T19:10:15.745Z,2.05
2023-05-19T19:12:42.421Z,1.50
2023-05-19T19:15:09.457Z,1.90
2023-05-19T19:17:37.390Z,1.65
2023-05-19T19:20:04.142Z,1.75
2023-05-19T19:22:30.729Z,1.73
2023-05-19T19:24:57.180Z,1.48
2023-05-19T19:27:24.680Z,1.63
2023-05-19T19:29:51.239Z,1.40
2023-05-19T19:32:17.737Z,1.60
2023-05-19T19:34:44.377Z,1.98
2023-05-19T19:37:11.272Z,2.05
2023-05-19T19:39:38.126Z,1.83
2023-05-19T19:42:05.033Z,1.80
2023-05-19T19:44:31.445Z,2.25
2023-05-19T19:46:57.908Z,2.10
2023-05-19T19:49:24.337Z,2.20
2023-05-19T19:51:50.833Z,2.40
2023-05-19T19:54:18.149Z,1.90
2023-05-19T19:56:44.586Z,1.85
2023-05-19T19:59:11.083Z,1.88
2023-05-19T20:01:37.554Z,1.70
2023-05-19T20:04:04.297Z,2.00
2023-05-19T20:06:32.152Z,2.13
2023-05-19T20:08:59.063Z,2.03
2023-05-19T20:11:26.651Z,1.98
2023-05-19T20:13:53.361Z,1.60
2023-05-19T20:16:19.960Z,1.90
2023-05-19T20:18:46.521Z,1.45
2023-05-19T20:21:13.021Z,2.08
2023-05-19T20:23:40.639Z,1.40
2023-05-19T20:26:12.752Z,1.50
2023-05-19T20:28:40.010Z,1.60
2023-05-19T20:31:06.738Z,1.17
2023-05-19T20:33:33.206Z,1.67
2023-05-19T20:35:59.736Z,1.88
2023-05-19T20:38:26.561Z,1.65
2023-05-19T20:40:54.214Z,1.38
2023-05-19T20:43:21.140Z,1.67
2023-05-19T20:45:47.776Z,1.90
2023-05-19T20:48:15.685Z,1.90
2023-05-19T20:50:42.255Z,1.70
2023-05-19T20:53:08.699Z,1.52
2023-05-19T20:55:36.476Z,1.40
2023-05-19T20:58:03.137Z,1.48
2023-05-19T21:00:30.633Z,1.42
2023-05-19T21:02:57.903Z,1.70
2023-05-19T21:05:24.639Z,1.40
2023-05-19T21:07:51.160Z,1.70
2023-05-19T21:10:17.853Z,1.85
2023-05-19T21:12:44.429Z,1.85
2023-05-19T21:15:11.548Z,1.77
2023-05-19T21:17:38.106Z,1.73
2023-05-19T21:20:05.235Z,1.90
2023-05-19T21:22:31.805Z,1.70
2023-05-19T21:24:58.459Z,1.95
2023-05-19T21:27:25.009Z,1.95
2023-05-19T21:29:53.094Z,2.28
2023-05-19T21:32:20.556Z,2.10
2023-05-19T21:34:47.089Z,2.40
2023-05-19T21:37:13.631Z,1.92
2023-05-19T21:39:40.209Z,2.25
2023-05-19T21:42:07.206Z,2.33
2023-05-19T21:44:33.685Z,2.20
2023-05-19T21:47:00.221Z,2.05
2023-05-19T21:49:26.704Z,2.60
2023-05-19T21:51:53.126Z,2.10
2023-05-19T21:54:19.588Z,1.90
2023-05-19T21:56:46.399Z,2.05
2023-05-19T21:59:12.844Z,2.10
2023-05-19T22:01:39.651Z,2.08
2023-05-19T22:04:06.300Z,1.67
2023-05-19T22:06:33.525Z,1.90
2023-05-19T22:09:02.193Z,1.80
2023-05-19T22:11:28.934Z,2.00
2023-05-19T22:13:55.504Z,1.92
2023-05-19T22:16:22.179Z,2.33
2023-05-19T22:18:48.801Z,2.17
2023-05-19T22:21:15.253Z,2.35
2023-05-19T22:23:41.721Z,2.28
2023-05-19T22:26:08.270Z,2.00
2023-05-19T22:28:34.722Z,2.13
2023-05-19T22:31:01.255Z,2.25
2023-05-19T22:33:27.791Z,2.17
2023-05-19T22:35:54.350Z,2.10
2023-05-19T22:38:20.853Z,1.85
2023-05-19T22:40:47.355Z,2.33
2023-05-19T22:43:13.793Z,2.20
2023-05-19T22:45:40.462Z,2.60
2023-05-19T22:48:07.067Z,2.20
2023-05-19T22:50:33.547Z,2.17
2023-05-19T22:53:00.105Z,2.03
2023-05-19T22:55:26.646Z,2.05
2023-05-19T22:57:53.088Z,2.08
2023-05-19T23:00:20.835Z,2.28
2023-05-19T23:02:47.410Z,2.10
2023-05-19T23:05:13.979Z,2.30
2023-05-19T23:07:40.655Z,2.30
2023-05-19T23:10:07.864Z,2.45
2023-05-19T23:12:34.431Z,2.30
2023-05-19T23:15:01.160Z,2.17
2023-05-19T23:17:27.692Z,2.00
2023-05-19T23:19:54.169Z,2.03
2023-05-19T23:22:20.724Z,2.00
2023-05-19T23:24:47.357Z,1.95
2023-05-19T23:27:13.807Z,1.60
2023-05-19T23:29:40.293Z,1.42
2023-05-19T23:32:07.188Z,1.70
2023-05-19T23:34:33.925Z,1.70
2023-05-19T23:37:00.491Z,1.52
2023-05-19T23:39:27.526Z,1.52
2023-05-19T23:41:54.020Z,1.48
2023-05-19T23:44:20.599Z,1.50
2023-05-19T23:46:47.074Z,1.55
2023-05-19T23:49:14.346Z,1.98
2023-05-19T23:51:40.811Z,1.80
2023-05-19T23:54:07.247Z,1.77
2023-05-19T23:56:33.701Z,1.60
2023-05-19T23:59:00.663Z,1.65
